Latest Coastal Weather Observations for Cape Flattery

IDQ60701

Issued at 3:21 am EST Monday 22 December 2014 (issued every 10 minutes, with the page automatically refreshed every 10 minutes)

About coastal observations | Map of coastal stations | Coastal observations for QLD | Marine services | Other Formats
Station Details ID: 031213 Name: CAPE FLATTERY Lat: -14.97 Lon: 145.31 Height: 18.5 m
Data from the previous 72 hours. | See also: Recent months at Cape Flattery
Date/Time
EST
Temp

°C
Wind Pressure Rain
since 9am
mm
Weather Cloud Vis
km
Sea
Height
m
Swell
Dir
 
Speed
knots
Gust
knots
hPa Trend Height
m
Period
s
Dir
22/03:00am 27.5 ESE 8 12 1009.0 - 0.0 - - - - - - -
22/02:30am 27.5 ESE 9 13 1009.1 - 0.0 - - - - - - -
22/02:00am 27.6 ESE 10 14 1009.4 - 0.0 - - - - - - -
22/01:30am 27.5 E 9 15 1009.7 - 0.0 - - - - - - -
22/01:00am 27.5 ESE 8 11 1010.1 - 0.0 - - - - - - -
22/12:30am 27.7 ESE 10 16 1010.5 - 0.0 - - - - - - -
22/12:00am 27.7 ESE 9 12 1010.9 - 0.0 - - - - - - -
 
Date/Time
EST
Temp

°C
Wind Pressure Rain
since 9am
mm
Weather Cloud Vis
km
Sea
Height
m
Swell
Dir
 
Speed
knots
Gust
knots
hPa Trend Height
m
Period
s
Dir
21/11:30pm 27.7 ESE 11 16 1011.3 - 0.0 - - - - - - -
21/11:00pm 27.9 ESE 12 17 1011.3 - 0.0 - - - - - - -
21/10:30pm 28.0 SE 13 18 1011.2 - 0.0 - - - - - - -
21/10:00pm 28.0 SE 12 19 1011.1 - 0.0 - - - - - - -
21/09:30pm 28.0 SE 11 15 1011.0 - 0.0 - - - - - - -
21/09:00pm 27.8 ESE 10 15 1010.6 - 0.0 - - - - - - -
21/08:30pm 27.9 ESE 10 15 1010.3 - 0.0 - - - - - - -
21/08:00pm 27.6 SE 12 18 1010.2 - 0.0 - - - - - - -
21/07:30pm 27.8 ESE 11 16 1009.9 - 0.0 - - - - - - -
21/07:00pm 27.7 SE 14 20 1009.8 - 0.0 - - - - - - -
21/06:30pm 28.2 SE 14 20 1009.6 - 0.0 - - - - - - -
21/06:00pm 29.1 SE 10 14 1009.2 - 0.0 - - - - - - -
21/05:30pm 29.8 SE 11 16 1009.3 - 0.0 - - - - - - -
21/05:00pm 30.5 ESE 11 14 1009.2 - 0.0 - - - - - - -
21/04:30pm 30.9 ESE 11 14 1009.2 - 0.0 - - - - - - -
21/04:00pm 31.3 SE 11 16 1009.4 - 0.0 - - - - - - -
21/03:30pm 31.5 SE 12 17 1009.5 - 0.0 - - - - - - -
21/03:00pm 31.5 SE 12 17 1009.8 - 0.0 - - - - - - -
21/02:30pm 32.3 SE 11 17 1009.9 - 0.0 - - - - - - -
21/02:00pm 32.2 ESE 12 17 1010.2 - 0.0 - - - - - - -
21/01:30pm 32.0 SE 13 17 1010.5 - 0.0 - - - - - - -
21/01:00pm 31.8 SE 13 19 1010.7 - 0.0 - - - - - - -
21/12:30pm 31.6 SE 13 19 1010.8 - 0.0 - - - - - - -
21/12:00pm 32.0 SE 13 18 1011.4 - 0.0 - - - - - - -
21/11:30am 32.6 SE 11 15 1011.8 - 0.0 - - - - - - -
21/11:00am 31.5 SE 12 17 1012.0 - 0.0 - - - - - - -
21/10:30am 32.2 ESE 13 17 1012.1 - 0.0 - - - - - - -
21/10:00am 31.0 ESE 12 18 1012.1 - 0.0 - - - - - - -
21/09:30am 30.9 ESE 13 17 1012.0 - 0.0 - - - - - - -
21/09:00am 31.0 ESE 11 15 1011.8 - 0.0 - - - - - - -
21/08:30am 30.2 ESE 11 16 1011.8 - 0.0 - - - - - - -
21/08:00am 29.8 ESE 11 14 1011.5 - 0.0 - - - - - - -
21/07:30am 29.7 E 9 15 1011.0 - 0.0 - - - - - - -
21/07:00am 28.5 ESE 8 11 1011.0 - 0.0 - - - - - - -
21/06:30am 27.3 E 7 10 1010.8 - 0.0 - - - - - - -
21/06:00am 26.9 ESE 7 11 1010.3 - 0.0 - - - - - - -
21/05:30am 27.0 ESE 7 10 1009.9 - 0.0 - - - - - - -
21/05:00am 27.3 ESE 8 12 1009.7 - 0.0 - - - - - - -
21/04:30am 27.3 ESE 9 12 1009.3 - 0.0 - - - - - - -
21/04:00am 27.4 ESE 9 13 1009.2 - 0.0 - - - - - - -
21/03:30am 27.3 ESE 8 11 1009.2 - 0.0 - - - - - - -
21/03:00am 27.2 ESE 7 8 1009.4 - 0.0 - - - - - - -
21/02:30am 27.3 ESE 7 10 1009.5 - 0.0 - - - - - - -
21/02:00am 27.4 E 6 8 1009.7 - 0.0 - - - - - - -
21/01:30am 27.5 E 7 11 1009.9 - 0.0 - - - - - - -
21/01:00am 27.5 E 7 10 1010.0 - 0.0 - - - - - - -
21/12:30am 27.5 E 7 12 1010.0 - 0.0 - - - - - - -
21/12:00am 27.6 ESE 8 12 1010.4 - 0.0 - - - - - - -
 
Date/Time
EST
Temp

°C
Wind Pressure Rain
since 9am
mm
Weather Cloud Vis
km
Sea
Height
m
Swell
Dir
 
Speed
knots
Gust
knots
hPa Trend Height
m
Period
s
Dir
20/11:30pm 27.4 ESE 7 10 1010.8 - 0.0 - - - - - - -
20/11:00pm 27.7 ESE 8 12 1010.9 - 0.0 - - - - - - -
20/10:30pm 27.7 ESE 7 12 1010.9 - 0.0 - - - - - - -
20/10:00pm 27.6 ESE 7 11 1010.8 - 0.0 - - - - - - -
20/09:30pm 27.7 ESE 8 13 1010.4 - 0.0 - - - - - - -
20/09:00pm 27.9 ESE 10 15 1010.3 - 0.0 - - - - - - -
20/08:30pm 28.1 ESE 10 14 1010.1 - 0.0 - - - - - - -
20/08:00pm 28.1 ESE 9 13 1010.0 - 0.0 - - - - - - -
20/07:30pm 28.0 ESE 9 11 1009.8 - 0.0 - - - - - - -
20/07:00pm 27.9 ESE 8 13 1009.5 - 0.0 - - - - - - -
20/06:30pm 28.3 ESE 11 17 1009.2 - 0.0 - - - - - - -
20/06:00pm 29.1 ESE 12 18 1009.0 - 0.0 - - - - - - -
20/05:30pm 29.2 ESE 12 18 1008.8 - 0.0 - - - - - - -
20/05:00pm 29.8 ESE 13 17 1008.5 - 0.0 - - - - - - -
20/04:30pm 30.3 ESE 12 16 1008.3 - 0.0 - - - - - - -
20/04:00pm 30.7 ESE 13 17 1008.1 - 0.0 - - - - - - -
20/03:30pm 31.0 ESE 13 18 1008.2 - 0.0 - - - - - - -
20/03:00pm 31.4 SE 13 18 1008.4 - 0.0 - - - - - - -
20/02:30pm 31.5 ESE 13 20 1008.6 - 0.0 - - - - - - -
20/02:00pm 31.3 SE 12 17 1008.8 - 0.0 - - - - - - -
20/01:30pm 32.3 SE 11 16 1009.1 - 0.0 - - - - - - -
20/01:00pm 32.3 SE 12 18 1009.5 - 0.0 - - - - - - -
20/12:30pm 32.1 ESE 11 17 1010.0 - 0.0 - - - - - - -
20/12:00pm 32.1 SE 10 17 1010.4 - 0.0 - - - - - - -
20/11:30am 32.0 SE 10 14 1010.9 - 0.0 - - - - - - -
20/11:00am 31.4 SSE 10 14 1011.2 - 0.0 - - - - - - -
20/10:30am 31.4 SE 10 14 1011.6 - 0.0 - - - - - - -
20/10:00am 30.5 SSE 12 16 1011.9 - 0.0 - - - - - - -
20/09:30am 31.1 SE 11 16 1011.9 - 0.0 - - - - - - -
20/09:00am 30.1 SE 10 15 1011.8 - 0.0 - - - - - - -
20/08:30am 29.8 SE 10 14 1011.7 - 0.0 - - - - - - -
20/08:00am 29.2 SE 9 14 1011.5 - 0.0 - - - - - - -
20/07:30am 27.6 ESE 5 7 1011.1 - 0.0 - - - - - - -
20/07:00am 28.5 ESE 6 8 1011.1 - 0.0 - - - - - - -
20/06:30am 26.3 ESE 5 7 1010.8 - 0.0 - - - - - - -
20/06:00am 25.6 ESE 5 7 1010.4 - 0.0 - - - - - - -
20/05:30am 25.8 ESE 6 7 1009.7 - 0.0 - - - - - - -
20/05:00am 25.8 ESE 5 6 1009.6 - 0.0 - - - - - - -
20/04:30am 25.8 ESE 6 7 1009.3 - 0.0 - - - - - - -
20/04:00am 26.2 ESE 5 7 1009.5 - 0.0 - - - - - - -
20/03:30am 26.1 ESE 6 7 1009.7 - 0.0 - - - - - - -
20/03:00am 26.0 E 5 7 1009.4 - 0.0 - - - - - - -
20/02:30am 25.9 E 5 6 1009.6 - 0.0 - - - - - - -
20/02:00am 25.9 E 5 7 1009.9 - 0.0 - - - - - - -
20/01:30am 25.9 ESE 5 7 1010.2 - 0.0 - - - - - - -
20/01:00am 25.8 ESE 6 8 1010.3 - 0.0 - - - - - - -
20/12:30am 25.5 E 4 5 1010.8 - 0.0 - - - - - - -
20/12:00am 25.4 ENE 4 6 1011.1 - 0.0 - - - - - - -
 
Date/Time
EST
Temp

°C
Wind Pressure Rain
since 9am
mm
Weather Cloud Vis
km
Sea
Height
m
Swell
Dir
 
Speed
knots
Gust
knots
hPa Trend Height
m
Period
s
Dir
19/11:30pm 25.3 E 4 5 1011.3 - 0.0 - - - - - - -
19/11:00pm 25.2 E 4 6 1011.2 - 0.0 - - - - - - -
19/10:30pm 25.4 E 4 5 1011.5 - 0.0 - - - - - - -
19/10:00pm 25.1 E 3 5 1011.4 - 0.0 - - - - - - -
19/09:30pm 25.5 E 5 7 1010.9 - 0.0 - - - - - - -
19/09:00pm 26.1 E 4 6 1010.7 - 0.0 - - - - - - -
19/08:30pm 26.6 E 6 8 1010.4 - 0.0 - - - - - - -
19/08:00pm 26.5 ENE 6 7 1009.8 - 0.0 - - - - - - -
19/07:30pm 26.5 E 5 7 1009.7 - 0.0 - - - - - - -
19/07:00pm 27.1 ENE 5 8 1009.5 - 0.0 - - - - - - -
19/06:30pm 28.0 ENE 7 9 1009.3 - 0.0 - - - - - - -
19/06:00pm 28.3 E 7 9 1009.3 - 0.0 - - - - - - -
19/05:30pm 28.8 E 8 13 1009.2 - 0.0 - - - - - - -
19/05:00pm 29.9 E 9 13 1008.8 - 0.0 - - - - - - -
19/04:30pm 30.6 E 9 13 1008.6 - 0.0 - - - - - - -
19/04:00pm 31.1 E 9 14 1008.6 - 0.0 - - - - - - -
19/03:30pm 30.7 ESE 10 14 1008.7 - 0.0 - - - - - - -
19/03:00pm 31.6 E 9 15 1008.9 - 0.0 - - - - - - -
19/02:30pm 31.8 ESE 11 16 1009.3 - 0.0 - - - - - - -
19/02:00pm 31.6 SE 11 15 1009.6 - 0.0 - - - - - - -
19/01:30pm 32.0 SE 11 15 1009.9 - 0.0 - - - - - - -
19/01:00pm 31.7 SE 11 15 1010.3 - 0.0 - - - - - - -
19/12:30pm 31.3 SE 12 16 1010.7 - 0.0 - - - - - - -
19/12:00pm 31.2 SE 10 14 1011.2 - 0.0 - - - - - - -
19/11:30am 30.8 SE 9 12 1011.6 - 0.0 - - - - - - -
19/11:00am 31.3 SE 8 12 1011.9 - 0.0 - - - - - - -
19/10:30am 30.9 SSE 9 13 1012.1 - 0.0 - - - - - - -
19/10:00am 30.8 SSE 7 11 1012.3 - 0.0 - - - - - - -
19/09:30am 30.6 E 5 8 1012.4 - 0.0 - - - - - - -
19/09:00am 29.6 ESE 7 11 1012.4 - 0.0 - - - - - - -
19/08:30am 29.3 SE 8 11 1012.3 - 0.0 - - - - - - -
19/08:00am 28.6 SE 7 11 1012.2 - 0.0 - - - - - - -
19/07:30am 27.7 ESE 6 8 1011.9 - 0.0 - - - - - - -
19/07:00am 26.5 ESE 5 7 1011.5 - 0.0 - - - - - - -
19/06:30am 24.4 SE 5 6 1011.5 - 0.0 - - - - - - -
19/06:00am 23.3 ESE 5 6 1011.2 - 0.0 - - - - - - -
19/05:30am 23.6 E 6 7 1010.8 - 0.0 - - - - - - -
19/05:00am 23.7 ENE 5 7 1010.4 - 0.0 - - - - - - -
19/04:30am 23.7 E 6 7 1010.4 - 0.0 - - - - - - -
19/04:00am 24.2 E 6 7 1010.5 - 0.0 - - - - - - -
19/03:30am 25.0 E 6 7 1010.6 - 0.0 - - - - - - -

Other Formats:

Comma delimited format used in spreadsheet applications
http://www.bom.gov.au/fwo/IDQ60701/IDQ60701.94188.axf

JavaScript Object Notation format (JSON) in row-major order
http://www.bom.gov.au/fwo/IDQ60701/IDQ60701.94188.json